| time (UTC) | temp F | wind direction | speed knots | gust knots | rain 1hr in | rain 24hr in | rain mn in | humidity % | barometer mb |
| 20260510071644 | 66 | 256 | 1.7 | 2.6 | 0.00 | 0.00 | 0.00 | 77 | 1017.2 |
| 20260510071142 | 66 | 225 | 3.5 | 5.2 | 0.00 | 0.00 | 0.00 | 76 | 1017.2 |
| 20260510070639 | 66 | 215 | 2.6 | 2.6 | 0.00 | 0.00 | 0.00 | 75 | 1017.2 |
| 20260510070137 | 66 | 199 | 1.7 | 2.6 | 0.00 | 0.00 | 0.00 | 76 | 1017.0 |
| 20260510065631 | 66 | 182 | 1.7 | 4.3 | 0.00 | 0.00 | 0.00 | 75 | 1017.2 |
| 20260510065128 | 66 | 204 | 2.6 | 2.6 | 0.00 | 0.00 | 0.00 | 75 | 1017.1 |
| 20260510064624 | 66 | 185 | 1.7 | 1.7 | 0.00 | 0.00 | 0.00 | 75 | 1017.4 |
| 20260510064122 | 66 | 212 | 1.7 | 2.6 | 0.00 | 0.00 | 0.00 | 74 | 1017.0 |
| 20260510063618 | 66 | 282 | 1.7 | 4.3 | 0.00 | 0.00 | 0.00 | 74 | 1017.4 |
| 20260510063115 | 66 | 270 | 1.7 | 2.6 | 0.00 | 0.00 | 0.00 | 74 | 1017.4 |
| 20260510062611 | 66 | 249 | 0.0 | 0.9 | 0.00 | 0.00 | 0.00 | 74 | 1017.6 |
| 20260510062107 | 66 | 215 | 2.6 | 5.2 | 0.00 | 0.00 | 0.00 | 74 | 1017.0 |
| 20260510061603 | 66 | 264 | 1.7 | 2.6 | 0.00 | 0.00 | 0.00 | 74 | 1017.4 |
| 20260510061100 | 66 | 146 | 2.6 | 2.6 | 0.00 | 0.00 | 0.00 | 73 | 1017.4 |
| 20260510060556 | 66 | 253 | 0.9 | 1.7 | 0.00 | 0.00 | 0.00 | 74 | 1017.4 |
| 20260510060053 | 66 | 232 | 0.0 | 0.0 | 0.00 | 0.00 | 0.00 | 73 | 1017.6 |
| 20260510055548 | 66 | 204 | 0.9 | 2.6 | 0.00 | 0.00 | 0.00 | 73 | 1017.7 |
| 20260510055047 | 66 | 228 | 2.6 | 2.6 | 0.00 | 0.00 | 0.00 | 73 | 1017.6 |
| 20260510054543 | 66 | 154 | 2.6 | 4.3 | 0.00 | 0.00 | 0.00 | 73 | 1017.6 |
| 20260510054038 | 66 | 231 | 0.0 | 0.9 | 0.00 | 0.00 | 0.00 | 72 | 1017.6 |
| 20260510053538 | 67 | 245 | 2.6 | 2.6 | 0.00 | 0.00 | 0.00 | 72 | 1017.6 |
| 20260510053035 | 67 | 159 | 1.7 | 2.6 | 0.00 | 0.00 | 0.00 | 72 | 1017.7 |
| 20260510052531 | 66 | 255 | 0.9 | 1.7 | 0.00 | 0.00 | 0.00 | 72 | 1017.6 |
| 20260510052027 | 66 | 271 | 0.9 | 1.7 | 0.00 | 0.00 | 0.00 | 72 | 1017.5 |
| 20260510051523 | 66 | 147 | 3.5 | 4.3 | 0.00 | 0.00 | 0.00 | 72 | 1017.2 |
| 20260510051019 | 66 | 121 | 2.6 | 5.2 | 0.00 | 0.00 | 0.00 | 72 | 1017.2 |
| 20260510050517 | 66 | 234 | 3.5 | 5.2 | 0.00 | 0.00 | 0.00 | 71 | 1017.4 |
| 20260510050014 | 66 | 216 | 1.7 | 1.7 | 0.00 | 0.00 | 0.00 | 71 | 1017.4 |
| 20260510045511 | 66 | 161 | 4.3 | 6.1 | 0.00 | 0.00 | 0.00 | 70 | 1017.0 |
| 20260510045007 | 66 | 225 | 2.6 | 4.3 | 0.00 | 0.00 | 0.00 | 70 | 1017.1 |
| 20260510044504 | 66 | 144 | 4.3 | 6.1 | 0.00 | 0.00 | 0.00 | 69 | 1017.2 |
| 20260510044001 | 66 | 119 | 3.5 | 5.2 | 0.00 | 0.00 | 0.00 | 69 | 1017.2 |
| 20260510043456 | 66 | 204 | 2.6 | 4.3 | 0.00 | 0.00 | 0.00 | 69 | 1017.0 |
| 20260510042955 | 66 | 116 | 0.9 | 1.7 | 0.00 | 0.00 | 0.00 | 69 | 1016.9 |
| 20260510042451 | 66 | 14 | 1.7 | 1.7 | 0.00 | 0.00 | 0.00 | 68 | 1017.1 |
| 20260510041946 | 66 | 243 | 1.7 | 1.7 | 0.00 | 0.00 | 0.00 | 68 | 1016.9 |
| 20260510041444 | 67 | 224 | 2.6 | 2.6 | 0.00 | 0.00 | 0.00 | 67 | 1016.9 |
| 20260510040942 | 67 | 215 | 0.9 | 1.7 | 0.00 | 0.00 | 0.00 | 66 | 1017.0 |
| 20260510040438 | 67 | 190 | 2.6 | 2.6 | 0.00 | 0.00 | 0.00 | 65 | 1017.1 |
| 20260510035935 | 67 | 195 | 1.7 | 2.6 | 0.00 | 0.00 | 0.00 | 65 | 1017.1 |
| 20260510035431 | 67 | 138 | 3.5 | 5.2 | 0.00 | 0.00 | 0.00 | 64 | 1016.8 |
| 20260510034930 | 68 | 224 | 2.6 | 4.3 | 0.00 | 0.00 | 0.00 | 63 | 1016.6 |
| 20260510034429 | 68 | 119 | 0.9 | 1.7 | 0.00 | 0.00 | 0.00 | 62 | 1016.4 |
| 20260510033925 | 68 | 267 | 1.7 | 2.6 | 0.00 | 0.00 | 0.00 | 62 | 1016.3 |
| 20260510033421 | 68 | 260 | 1.7 | 2.6 | 0.00 | 0.00 | 0.00 | 61 | 1016.6 |
| 20260510032918 | 68 | 136 | 3.5 | 4.3 | 0.00 | 0.00 | 0.00 | 61 | 1016.2 |
| 20260510032415 | 68 | 179 | 2.6 | 5.2 | 0.00 | 0.00 | 0.00 | 60 | 1016.6 |
| 20260510031910 | 68 | 119 | 2.6 | 4.3 | 0.00 | 0.00 | 0.00 | 60 | 1016.5 |
| 20260510031407 | 69 | 190 | 0.0 | 0.9 | 0.00 | 0.00 | 0.00 | 60 | 1016.5 |
| 20260510030906 | 69 | 170 | 3.5 | 5.2 | 0.00 | 0.00 | 0.00 | 60 | 1016.2 |
| 20260510030403 | 69 | 234 | 0.9 | 1.7 | 0.00 | 0.00 | 0.00 | 60 | 1016.2 |
| 20260510025901 | 69 | 237 | 0.9 | 0.9 | 0.00 | 0.00 | 0.00 | 60 | 1016.3 |
| 20260510025358 | 69 | 181 | 1.7 | 2.6 | 0.00 | 0.00 | 0.00 | 60 | 1016.2 |
| 20260510024855 | 69 | 175 | 2.6 | 4.3 | 0.00 | 0.00 | 0.00 | 60 | 1016.2 |
| 20260510024352 | 69 | 219 | 0.9 | 0.9 | 0.00 | 0.00 | 0.00 | 60 | 1016.0 |
| 20260510023847 | 69 | 175 | 1.7 | 1.7 | 0.00 | 0.00 | 0.00 | 60 | 1016.2 |
| 20260510023344 | 69 | 238 | 1.7 | 1.7 | 0.00 | 0.00 | 0.00 | 59 | 1016.1 |
| 20260510022842 | 69 | 240 | 2.6 | 4.3 | 0.00 | 0.00 | 0.00 | 58 | 1015.7 |
| 20260510022341 | 69 | 177 | 2.6 | 2.6 | 0.00 | 0.00 | 0.00 | 57 | 1015.5 |
| 20260510021840 | 69 | 248 | 0.9 | 1.7 | 0.00 | 0.00 | 0.00 | 55 | 1015.7 |
| 20260510021338 | 69 | 267 | 0.0 | 0.0 | 0.00 | 0.00 | 0.00 | 48 | 1015.4 |
| 20260510020835 | 69 | 251 | 0.9 | 0.9 | 0.00 | 0.00 | 0.00 | 47 | 1015.4 |
| 20260510020334 | 69 | 230 | 0.9 | 0.9 | 0.00 | 0.00 | 0.00 | 47 | 1015.4 |
| 20260510015830 | 69 | 236 | 0.0 | 0.9 | 0.00 | 0.00 | 0.00 | 46 | 1015.1 |
| 20260510015326 | 70 | 216 | 0.0 | 0.9 | 0.00 | 0.00 | 0.00 | 46 | 1015.3 |
| 20260510014822 | 70 | 209 | 0.0 | 0.0 | 0.00 | 0.00 | 0.00 | 46 | 1015.1 |
| 20260510014319 | 70 | 127 | 2.6 | 2.6 | 0.00 | 0.00 | 0.00 | 46 | 1015.1 |
| 20260510013815 | 70 | 232 | 1.7 | 1.7 | 0.00 | 0.00 | 0.00 | 46 | 1014.9 |
| 20260510013311 | 69 | 339 | 0.9 | 0.9 | 0.00 | 0.00 | 0.00 | 47 | 1014.8 |
| 20260510012806 | 69 | 234 | 0.9 | 0.9 | 0.00 | 0.00 | 0.00 | 47 | 1014.9 |
| 20260510012301 | 70 | 207 | 0.0 | 0.9 | 0.00 | 0.00 | 0.00 | 46 | 1014.7 |
| 20260510011800 | 70 | 242 | 0.9 | 0.9 | 0.00 | 0.00 | 0.00 | 46 | 1014.8 |
| 20260510011256 | 70 | 239 | 1.7 | 1.7 | 0.00 | 0.00 | 0.00 | 45 | 1014.7 |
| 20260510010753 | 71 | 74 | 2.6 | 2.6 | 0.00 | 0.00 | 0.00 | 44 | 1014.9 |
| 20260510010250 | 71 | 126 | 2.6 | 4.3 | 0.00 | 0.00 | 0.00 | 43 | 1014.8 |
| 20260510005747 | 72 | 149 | 4.3 | 5.2 | 0.00 | 0.00 | 0.00 | 41 | 1014.7 |
| 20260510005243 | 71 | 73 | 2.6 | 5.2 | 0.00 | 0.00 | 0.00 | 41 | 1014.8 |
| 20260510004741 | 71 | 108 | 0.9 | 1.7 | 0.00 | 0.00 | 0.00 | 40 | 1014.6 |
| 20260510004238 | 71 | 331 | 0.9 | 0.9 | 0.00 | 0.00 | 0.00 | 40 | 1014.7 |
| 20260510003736 | 72 | 275 | 0.0 | 0.9 | 0.00 | 0.00 | 0.00 | 38 | 1014.5 |
| 20260510003232 | 72 | 306 | 0.9 | 1.7 | 0.00 | 0.00 | 0.00 | 38 | 1014.3 |
| 20260510002730 | 72 | 40 | 2.6 | 2.6 | 0.00 | 0.00 | 0.00 | 38 | 1014.6 |
| 20260510002228 | 72 | 247 | 0.0 | 0.9 | 0.00 | 0.00 | 0.00 | 39 | 1014.5 |
| 20260510001725 | 72 | 90 | 1.7 | 1.7 | 0.00 | 0.00 | 0.00 | 39 | 1014.4 |
| 20260510001224 | 72 | 313 | 0.9 | 0.9 | 0.00 | 0.00 | 0.00 | 40 | 1014.4 |
| 20260510000719 | 73 | 27 | 1.7 | 1.7 | 0.00 | 0.00 | 0.00 | 39 | 1014.6 |
| 20260510000218 | 73 | 291 | 0.9 | 0.9 | 0.00 | 0.00 | 0.00 | 39 | 1014.6 |
| 20260509235714 | 73 | 269 | 0.9 | 0.9 | 0.00 | 0.00 | 0.00 | 38 | 1014.7 |
| 20260509235210 | 73 | 265 | 0.0 | 0.9 | 0.00 | 0.00 | 0.00 | 38 | 1014.3 |
| 20260509234706 | 73 | 232 | 0.9 | 0.9 | 0.00 | 0.00 | 0.00 | 38 | 1014.5 |
| 20260509234203 | 73 | 268 | 0.0 | 0.0 | 0.00 | 0.00 | 0.00 | 38 | 1014.3 |
| 20260509233701 | 73 | 277 | 0.0 | 0.0 | 0.00 | 0.00 | 0.00 | 38 | 1014.3 |
| 20260509233159 | 73 | 254 | 0.9 | 0.9 | 0.00 | 0.00 | 0.00 | 37 | 1014.6 |
| 20260509232654 | 73 | 194 | 0.0 | 1.7 | 0.00 | 0.00 | 0.00 | 39 | 1014.6 |
| 20260509232151 | 73 | 271 | 0.0 | 0.9 | 0.00 | 0.00 | 0.00 | 39 | 1014.0 |
| 20260509231648 | 73 | 258 | 0.0 | 0.0 | 0.00 | 0.00 | 0.00 | 39 | 1014.7 |
| 20260509231145 | 74 | 214 | 0.9 | 1.7 | 0.00 | 0.00 | 0.00 | 40 | 1014.6 |
| 20260509230642 | 74 | 170 | 1.7 | 1.7 | 0.00 | 0.00 | 0.00 | 39 | 1014.5 |
| 20260509230139 | 74 | 134 | 0.9 | 2.6 | 0.00 | 0.00 | 0.00 | 38 | 1014.4 |
| 20260509225635 | 74 | 249 | 0.0 | 0.0 | 0.00 | 0.00 | 0.00 | 38 | 1014.5 |
| 20260509225131 | 74 | 258 | 0.0 | 0.0 | 0.00 | 0.00 | 0.00 | 38 | 1014.5 |
| 20260509224626 | 74 | 193 | 0.9 | 0.9 | 0.00 | 0.00 | 0.00 | 38 | 1014.5 |
| 20260509224123 | 74 | 47 | 1.7 | 1.7 | 0.00 | 0.00 | 0.00 | 37 | 1014.3 |
| 20260509223620 | 74 | 302 | 0.9 | 1.7 | 0.00 | 0.00 | 0.00 | 39 | 1014.4 |
| 20260509223118 | 74 | 300 | 0.9 | 0.9 | 0.00 | 0.00 | 0.00 | 38 | 1014.3 |
| 20260509222614 | 74 | 239 | 0.9 | 0.9 | 0.00 | 0.00 | 0.00 | 39 | 1014.4 |
| 20260509222110 | 74 | 329 | 0.9 | 0.9 | 0.00 | 0.00 | 0.00 | 37 | 1014.4 |
| 20260509221606 | 75 | 222 | 0.9 | 0.9 | 0.00 | 0.00 | 0.00 | 40 | 1014.1 |
| 20260509221102 | 75 | 271 | 0.0 | 0.0 | 0.00 | 0.00 | 0.00 | 38 | 1014.0 |
| 20260509220558 | 75 | 249 | 0.0 | 0.0 | 0.00 | 0.00 | 0.00 | 38 | 1014.3 |
| 20260509220054 | 75 | 108 | 1.7 | 1.7 | 0.00 | 0.00 | 0.00 | 36 | 1014.4 |
| 20260509215549 | 75 | 89 | 0.9 | 0.9 | 0.00 | 0.00 | 0.00 | 37 | 1014.1 |
| 20260509215047 | 75 | 199 | 2.6 | 2.6 | 0.00 | 0.00 | 0.00 | 36 | 1014.3 |
| 20260509214544 | 75 | 215 | 1.7 | 1.7 | 0.00 | 0.00 | 0.00 | 36 | 1014.3 |
| 20260509214041 | 75 | 223 | 1.7 | 1.7 | 0.00 | 0.00 | 0.00 | 37 | 1014.3 |
| 20260509213537 | 75 | 252 | 1.7 | 1.7 | 0.00 | 0.00 | 0.00 | 35 | 1014.6 |
| 20260509213034 | 76 | 184 | 1.7 | 2.6 | 0.00 | 0.00 | 0.00 | 37 | 1014.4 |
| 20260509212531 | 76 | 233 | 1.7 | 1.7 | 0.00 | 0.00 | 0.00 | 37 | 1014.5 |
| 20260509212028 | 77 | 191 | 0.9 | 0.9 | 0.00 | 0.00 | 0.00 | 38 | 1014.4 |
| 20260509211524 | 76 | 272 | 0.9 | 0.9 | 0.00 | 0.00 | 0.00 | 36 | 1014.4 |
| 20260509211021 | 76 | 273 | 0.9 | 0.9 | 0.00 | 0.00 | 0.00 | 37 | 1014.5 |
| 20260509210518 | 75 | 283 | 0.0 | 0.0 | 0.00 | 0.00 | 0.00 | 36 | 1014.7 |
| 20260509210014 | 75 | 204 | 1.7 | 1.7 | 0.00 | 0.00 | 0.00 | 36 | 1014.6 |
| 20260509205508 | 76 | 271 | 0.0 | 0.0 | 0.00 | 0.00 | 0.00 | 38 | 1014.7 |
| 20260509205004 | 77 | 286 | 0.0 | 0.9 | 0.00 | 0.00 | 0.00 | 37 | 1014.7 |
| 20260509204500 | 75 | 231 | 1.7 | 1.7 | 0.00 | 0.00 | 0.00 | 39 | 1014.8 |
| 20260509203957 | 76 | 231 | 2.6 | 2.6 | 0.00 | 0.00 | 0.00 | 36 | 1014.7 |
| 20260509203452 | 76 | 244 | 1.7 | 1.7 | 0.00 | 0.00 | 0.00 | 37 | 1014.9 |
| 20260509202950 | 76 | 171 | 2.6 | 2.6 | 0.00 | 0.00 | 0.00 | 40 | 1015.1 |
| 20260509202446 | 77 | 216 | 4.3 | 5.2 | 0.00 | 0.00 | 0.00 | 38 | 1014.7 |
| 20260509201941 | 76 | 344 | 0.9 | 1.7 | 0.00 | 0.00 | 0.00 | 39 | 1015.0 |
| 20260509201437 | 76 | 278 | 0.0 | 0.0 | 0.00 | 0.00 | 0.00 | 36 | 1014.8 |
| 20260509200934 | 76 | 137 | 1.7 | 2.6 | 0.00 | 0.00 | 0.00 | 39 | 1014.9 |
| 20260509200434 | 77 | 279 | 0.0 | 0.0 | 0.00 | 0.00 | 0.00 | 35 | 1014.7 |
| 20260509195931 | 77 | 279 | 0.9 | 0.9 | 0.00 | 0.00 | 0.00 | 35 | 1015.0 |
| 20260509195427 | 75 | 269 | 0.0 | 0.9 | 0.00 | 0.00 | 0.00 | 34 | 1015.0 |
| 20260509194926 | 75 | 274 | 0.9 | 1.7 | 0.00 | 0.00 | 0.00 | 36 | 1015.2 |
| 20260509194422 | 76 | 345 | 3.5 | 4.3 | 0.00 | 0.00 | 0.00 | 36 | 1015.1 |
| 20260509193920 | 76 | 163 | 3.5 | 4.3 | 0.00 | 0.00 | 0.00 | 38 | 1015.3 |
| 20260509193419 | 75 | 98 | 3.5 | 5.2 | 0.00 | 0.00 | 0.00 | 38 | 1015.4 |
| 20260509192915 | 75 | 243 | 2.6 | 2.6 | 0.00 | 0.00 | 0.00 | 37 | 1015.3 |
| 20260509192411 | 77 | 208 | 3.5 | 4.3 | 0.00 | 0.00 | 0.00 | 36 | 1015.3 |
| 20260509191907 | 78 | 201 | 1.7 | 2.6 | 0.00 | 0.00 | 0.00 | 36 | 1015.4 |
| 20260509191402 | 80 | 255 | 0.9 | 0.9 | 0.00 | 0.00 | 0.00 | 37 | 1015.4 |
| 20260509190859 | 79 | 280 | 0.0 | 0.0 | 0.00 | 0.00 | 0.00 | 37 | 1015.3 |
| 20260509190356 | 81 | 280 | 0.9 | 0.9 | 0.00 | 0.00 | 0.00 | 35 | 1015.3 |
| 20260509185853 | 79 | 272 | 0.0 | 0.0 | 0.00 | 0.00 | 0.00 | 35 | 1015.6 |
| 20260509185350 | 77 | 281 | 0.9 | 0.9 | 0.00 | 0.00 | 0.00 | 34 | 1015.4 |
| 20260509184847 | 78 | 121 | 3.5 | 6.1 | 0.00 | 0.00 | 0.00 | 34 | 1015.4 |
| 20260509184344 | 79 | 276 | 0.9 | 0.9 | 0.00 | 0.00 | 0.00 | 34 | 1015.3 |
| 20260509183841 | 79 | 280 | 0.9 | 0.9 | 0.00 | 0.00 | 0.00 | 32 | 1015.4 |
| 20260509183336 | 76 | 351 | 0.0 | 0.0 | 0.00 | 0.00 | 0.00 | 38 | 1015.5 |
| 20260509182832 | 75 | 283 | 0.0 | 0.0 | 0.00 | 0.00 | 0.00 | 39 | 1015.6 |
| 20260509182329 | 77 | 80 | 2.6 | 2.6 | 0.00 | 0.00 | 0.00 | 34 | 1015.6 |
| 20260509181827 | 75 | 105 | 1.7 | 2.6 | 0.00 | 0.00 | 0.00 | 36 | 1015.5 |
| 20260509181324 | 74 | 270 | 0.9 | 0.9 | 0.00 | 0.00 | 0.00 | 36 | 1015.4 |
| 20260509180821 | 74 | 208 | 2.6 | 4.3 | 0.00 | 0.00 | 0.00 | 36 | 1015.5 |
| 20260509180317 | 75 | 93 | 2.6 | 5.2 | 0.00 | 0.00 | 0.00 | 37 | 1015.6 |
| 20260509175813 | 76 | 92 | 2.6 | 5.2 | 0.00 | 0.00 | 0.00 | 33 | 1015.5 |
| 20260509175310 | 77 | 277 | 0.0 | 0.9 | 0.00 | 0.00 | 0.00 | 34 | 1015.6 |
| 20260509174806 | 77 | 299 | 1.7 | 1.7 | 0.00 | 0.00 | 0.00 | 37 | 1015.1 |
| 20260509174302 | 78 | 88 | 1.7 | 1.7 | 0.00 | 0.00 | 0.00 | 34 | 1015.4 |
| 20260509173758 | 77 | 284 | 1.7 | 1.7 | 0.00 | 0.00 | 0.00 | 38 | 1015.4 |
| 20260509173253 | 75 | 294 | 1.7 | 1.7 | 0.00 | 0.00 | 0.00 | 38 | 1015.6 |
| 20260509172749 | 78 | 294 | 0.0 | 0.0 | 0.00 | 0.00 | 0.00 | 40 | 1015.6 |
| 20260509172247 | 77 | 300 | 1.7 | 1.7 | 0.00 | 0.00 | 0.00 | 39 | 1015.9 |
| 20260509171742 | 77 | 187 | 0.0 | 0.9 | 0.00 | 0.00 | 0.00 | 41 | 1015.5 |
| 20260509171238 | 77 | 326 | 1.7 | 1.7 | 0.00 | 0.00 | 0.00 | 39 | 1015.5 |
| 20260509170735 | 74 | 114 | 1.7 | 2.6 | 0.00 | 0.00 | 0.00 | 35 | 1015.7 |
| 20260509170231 | 75 | 138 | 2.6 | 2.6 | 0.00 | 0.00 | 0.00 | 37 | 1015.7 |
| 20260509165730 | 75 | 149 | 0.0 | 0.0 | 0.00 | 0.00 | 0.00 | 43 | 1015.7 |
| 20260509165225 | 76 | 333 | 0.9 | 1.7 | 0.00 | 0.00 | 0.00 | 41 | 1015.6 |
| 20260509164721 | 76 | 277 | 0.9 | 0.9 | 0.00 | 0.00 | 0.00 | 38 | 1015.7 |
| 20260509164217 | 79 | 339 | 0.0 | 0.9 | 0.00 | 0.00 | 0.00 | 39 | 1015.6 |
| 20260509163715 | 77 | 290 | 0.9 | 1.7 | 0.00 | 0.00 | 0.00 | 44 | 1015.5 |
| 20260509163211 | 77 | 66 | 0.9 | 2.6 | 0.00 | 0.00 | 0.00 | 39 | 1015.6 |
| 20260509162709 | 78 | 228 | 0.0 | 0.9 | 0.00 | 0.00 | 0.00 | 42 | 1015.7 |
| 20260509162204 | 76 | 279 | 0.9 | 0.9 | 0.00 | 0.00 | 0.00 | 42 | 1015.6 |
| 20260509161700 | 77 | 278 | 0.0 | 0.0 | 0.00 | 0.00 | 0.00 | 44 | 1015.5 |
| 20260509161155 | 77 | 284 | 0.9 | 0.9 | 0.00 | 0.00 | 0.00 | 39 | 1015.6 |
| 20260509160651 | 77 | 293 | 0.9 | 0.9 | 0.00 | 0.00 | 0.00 | 40 | 1015.9 |
| 20260509160147 | 76 | 278 | 0.9 | 0.9 | 0.00 | 0.00 | 0.00 | 39 | 1015.6 |
| 20260509155643 | 77 | 280 | 0.9 | 0.9 | 0.00 | 0.00 | 0.00 | 39 | 1015.5 |
| 20260509155140 | 76 | 288 | 0.0 | 1.7 | 0.00 | 0.00 | 0.00 | 46 | 1015.5 |
| 20260509154635 | 75 | 283 | 0.0 | 0.9 | 0.00 | 0.00 | 0.00 | 48 | 1015.4 |
| 20260509154133 | 76 | 289 | 0.9 | 0.9 | 0.00 | 0.00 | 0.00 | 49 | 1015.5 |
| 20260509153630 | 75 | 278 | 0.0 | 0.0 | 0.00 | 0.00 | 0.00 | 48 | 1015.6 |
| 20260509153126 | 75 | 278 | 0.0 | 0.9 | 0.00 | 0.00 | 0.00 | 51 | 1015.5 |
| 20260509152622 | 75 | 240 | 0.0 | 0.9 | 0.00 | 0.00 | 0.00 | 55 | 1015.5 |
| 20260509152120 | 75 | 275 | 0.0 | 0.0 | 0.00 | 0.00 | 0.00 | 55 | 1015.4 |
| 20260509151616 | 73 | 272 | 0.0 | 0.0 | 0.00 | 0.00 | 0.00 | 61 | 1015.4 |
| 20260509151114 | 72 | 281 | 0.9 | 1.7 | 0.00 | 0.00 | 0.00 | 64 | 1015.4 |
| 20260509150611 | 73 | 277 | 0.0 | 0.9 | 0.00 | 0.00 | 0.00 | 64 | 1015.5 |
| 20260509150110 | 73 | 287 | 0.0 | 0.9 | 0.00 | 0.00 | 0.00 | 65 | 1015.4 |
| 20260509145605 | 71 | 280 | 0.0 | 0.0 | 0.00 | 0.00 | 0.00 | 68 | 1015.4 |
| 20260509145100 | 71 | 274 | 0.0 | 0.0 | 0.00 | 0.00 | 0.00 | 69 | 1015.3 |
| 20260509144558 | 70 | 283 | 0.9 | 0.9 | 0.00 | 0.00 | 0.00 | 71 | 1015.2 |
| 20260509144055 | 70 | 285 | 0.0 | 0.0 | 0.00 | 0.00 | 0.00 | 72 | 1015.4 |
| 20260509143551 | 70 | 284 | 0.9 | 0.9 | 0.00 | 0.00 | 0.00 | 72 | 1015.3 |
| 20260509143049 | 69 | 279 | 0.0 | 0.0 | 0.00 | 0.00 | 0.00 | 73 | 1015.3 |
| 20260509142544 | 69 | 277 | 0.9 | 0.9 | 0.00 | 0.00 | 0.00 | 74 | 1015.2 |
| 20260509142041 | 69 | 277 | 0.9 | 0.9 | 0.00 | 0.00 | 0.00 | 74 | 1015.4 |
| 20260509141537 | 69 | 270 | 0.0 | 0.0 | 0.00 | 0.00 | 0.00 | 74 | 1015.3 |
| 20260509141034 | 68 | 279 | 0.9 | 0.9 | 0.00 | 0.00 | 0.00 | 76 | 1015.1 |
| 20260509140531 | 67 | 279 | 0.0 | 0.0 | 0.00 | 0.00 | 0.00 | 77 | 1015.2 |
| 20260509140029 | 67 | 281 | 0.0 | 0.9 | 0.00 | 0.00 | 0.00 | 77 | 1015.0 |
| 20260509135525 | 66 | 286 | 0.9 | 1.7 | 0.00 | 0.00 | 0.00 | 77 | 1014.8 |
| 20260509135023 | 65 | 277 | 0.0 | 0.0 | 0.00 | 0.00 | 0.00 | 81 | 1014.8 |
| 20260509134520 | 64 | 280 | 0.9 | 1.7 | 0.00 | 0.00 | 0.00 | 81 | 1014.8 |
| 20260509134018 | 64 | 279 | 0.0 | 0.0 | 0.00 | 0.00 | 0.00 | 82 | 1014.9 |
| 20260509133514 | 64 | 278 | 0.9 | 0.9 | 0.00 | 0.00 | 0.00 | 82 | 1014.8 |
| 20260509133012 | 64 | 275 | 0.9 | 0.9 | 0.00 | 0.00 | 0.00 | 82 | 1014.8 |
| 20260509132510 | 63 | 281 | 1.7 | 1.7 | 0.00 | 0.00 | 0.00 | 84 | 1014.6 |
| 20260509132008 | 63 | 280 | 0.9 | 0.9 | 0.00 | 0.00 | 0.00 | 84 | 1014.6 |
| 20260509131504 | 62 | 277 | 0.9 | 1.7 | 0.00 | 0.00 | 0.00 | 85 | 1014.3 |
| 20260509131001 | 62 | 277 | 0.9 | 0.9 | 0.00 | 0.00 | 0.00 | 86 | 1014.6 |
| 20260509130456 | 62 | 282 | 1.7 | 1.7 | 0.00 | 0.00 | 0.00 | 86 | 1014.5 |
| 20260509125953 | 61 | 280 | 0.9 | 0.9 | 0.00 | 0.00 | 0.00 | 87 | 1014.5 |
| 20260509125450 | 61 | 275 | 0.9 | 0.9 | 0.00 | 0.00 | 0.00 | 87 | 1014.3 |
| 20260509124946 | 61 | 282 | 0.9 | 1.7 | 0.00 | 0.00 | 0.00 | 88 | 1014.1 |
| 20260509124443 | 61 | 304 | 1.7 | 1.7 | 0.00 | 0.00 | 0.00 | 87 | 1014.4 |
| 20260509123940 | 61 | 285 | 0.9 | 0.9 | 0.00 | 0.00 | 0.00 | 87 | 1014.3 |
| 20260509123438 | 61 | 295 | 0.9 | 1.7 | 0.00 | 0.00 | 0.00 | 87 | 1014.4 |
| 20260509122933 | 60 | 228 | 0.0 | 0.9 | 0.00 | 0.00 | 0.00 | 89 | 1014.4 |
| 20260509122431 | 60 | 288 | 0.9 | 0.9 | 0.00 | 0.00 | 0.00 | 89 | 1014.1 |
| 20260509121927 | 59 | 280 | 0.9 | 0.9 | 0.00 | 0.00 | 0.00 | 90 | 1014.1 |
| 20260509121424 | 59 | 293 | 0.9 | 1.7 | 0.00 | 0.00 | 0.00 | 90 | 1013.9 |
| 20260509120922 | 58 | 301 | 2.6 | 2.6 | 0.00 | 0.00 | 0.00 | 91 | 1013.8 |
| 20260509120420 | 58 | 306 | 1.7 | 1.7 | 0.00 | 0.00 | 0.00 | 92 | 1013.8 |
| 20260509115918 | 58 | 304 | 1.7 | 1.7 | 0.00 | 0.00 | 0.00 | 92 | 1013.5 |
| 20260509115415 | 57 | 290 | 0.0 | 0.9 | 0.00 | 0.00 | 0.00 | 93 | 1013.4 |
| 20260509114912 | 57 | 278 | 0.9 | 0.9 | 0.00 | 0.00 | 0.00 | 93 | 1013.6 |
| 20260509114411 | 57 | 289 | 0.9 | 0.9 | 0.00 | 0.00 | 0.00 | 93 | 1013.5 |
| 20260509113910 | 57 | 277 | 0.0 | 0.0 | 0.00 | 0.00 | 0.00 | 94 | 1013.4 |
| 20260509113407 | 57 | 305 | 0.9 | 1.7 | 0.00 | 0.00 | 0.00 | 95 | 1013.3 |
| 20260509112903 | 56 | 294 | 0.9 | 1.7 | 0.00 | 0.00 | 0.00 | 95 | 1013.4 |
| 20260509112400 | 56 | 279 | 0.0 | 0.0 | 0.00 | 0.00 | 0.00 | 96 | 1013.2 |
| 20260509111858 | 56 | 304 | 0.9 | 0.9 | 0.00 | 0.00 | 0.00 | 96 | 1013.3 |
| 20260509111354 | 56 | 282 | 0.9 | 0.9 | 0.00 | 0.00 | 0.00 | 96 | 1013.3 |
| 20260509110852 | 56 | 292 | 0.9 | 1.7 | 0.00 | 0.00 | 0.00 | 96 | 1013.2 |
| 20260509110348 | 56 | 286 | 0.0 | 0.9 | 0.00 | 0.00 | 0.00 | 96 | 1013.3 |
| 20260509105846 | 56 | 275 | 0.9 | 0.9 | 0.00 | 0.00 | 0.00 | 96 | 1013.3 |
| 20260509105344 | 56 | 285 | 0.0 | 0.0 | 0.00 | 0.00 | 0.00 | 96 | 1013.0 |
| 20260509104841 | 55 | 284 | 0.0 | 0.0 | 0.00 | 0.00 | 0.00 | 97 | 1013.1 |
| 20260509104337 | 55 | 284 | 0.0 | 0.0 | 0.00 | 0.00 | 0.00 | 97 | 1013.2 |
| 20260509103835 | 55 | 270 | 0.0 | 0.0 | 0.00 | 0.00 | 0.00 | 97 | 1013.1 |
| 20260509103332 | 55 | 272 | 0.0 | 0.0 | 0.00 | 0.00 | 0.00 | 96 | 1013.1 |
| 20260509102831 | 56 | 267 | 0.9 | 0.9 | 0.00 | 0.00 | 0.00 | 96 | 1013.4 |
| 20260509102328 | 56 | 265 | 0.0 | 0.9 | 0.00 | 0.00 | 0.00 | 95 | 1013.3 |
| 20260509101823 | 56 | 276 | 0.0 | 0.0 | 0.00 | 0.00 | 0.00 | 95 | 1013.1 |
| 20260509101320 | 56 | 277 | 0.0 | 0.0 | 0.00 | 0.00 | 0.00 | 94 | 1013.0 |
| 20260509100818 | 56 | 279 | 0.0 | 0.0 | 0.00 | 0.00 | 0.00 | 94 | 1012.9 |
| 20260509100315 | 57 | 282 | 0.9 | 0.9 | 0.00 | 0.00 | 0.00 | 94 | 1013.2 |
| 20260509095811 | 57 | 276 | 0.0 | 0.0 | 0.00 | 0.00 | 0.00 | 94 | 1013.1 |
| 20260509095309 | 57 | 284 | 0.0 | 0.9 | 0.00 | 0.00 | 0.00 | 93 | 1013.0 |
| 20260509094806 | 57 | 277 | 0.0 | 0.9 | 0.00 | 0.00 | 0.00 | 94 | 1013.1 |
| 20260509094302 | 56 | 276 | 0.0 | 0.9 | 0.00 | 0.00 | 0.00 | 95 | 1013.1 |
| 20260509093800 | 56 | 276 | 0.9 | 0.9 | 0.00 | 0.00 | 0.00 | 95 | 1013.0 |
| 20260509093257 | 56 | 276 | 0.9 | 0.9 | 0.00 | 0.00 | 0.00 | 94 | 1013.0 |
| 20260509092755 | 56 | 275 | 0.0 | 0.0 | 0.00 | 0.00 | 0.00 | 94 | 1013.2 |
| 20260509092253 | 56 | 277 | 0.0 | 0.9 | 0.00 | 0.00 | 0.00 | 94 | 1013.3 |
| 20260509091751 | 56 | 275 | 0.0 | 0.0 | 0.00 | 0.00 | 0.00 | 94 | 1013.3 |
| 20260509091247 | 56 | 274 | 0.9 | 0.9 | 0.00 | 0.00 | 0.00 | 95 | 1013.4 |
| 20260509090745 | 55 | 275 | 0.9 | 0.9 | 0.00 | 0.00 | 0.00 | 95 | 1013.5 |
| 20260509090242 | 55 | 275 | 0.9 | 0.9 | 0.00 | 0.00 | 0.00 | 95 | 1013.5 |
| 20260509085739 | 55 | 277 | 0.0 | 0.9 | 0.00 | 0.00 | 0.00 | 95 | 1013.6 |
| 20260509085237 | 55 | 275 | 0.0 | 0.0 | 0.00 | 0.00 | 0.00 | 95 | 1013.7 |
| 20260509084733 | 55 | 276 | 0.9 | 0.9 | 0.00 | 0.00 | 0.00 | 96 | 1013.5 |
| 20260509084229 | 55 | 277 | 0.9 | 0.9 | 0.00 | 0.00 | 0.00 | 95 | 1013.8 |
| 20260509083728 | 55 | 273 | 0.0 | 0.0 | 0.00 | 0.00 | 0.00 | 95 | 1013.6 |
| 20260509083224 | 55 | 277 | 0.0 | 0.0 | 0.00 | 0.00 | 0.00 | 95 | 1013.5 |
| 20260509082721 | 55 | 275 | 0.0 | 0.0 | 0.00 | 0.00 | 0.00 | 95 | 1013.9 |
| 20260509082218 | 55 | 273 | 0.0 | 0.0 | 0.00 | 0.00 | 0.00 | 95 | 1013.6 |
| 20260509081714 | 55 | 279 | 0.0 | 0.0 | 0.00 | 0.00 | 0.00 | 95 | 1013.9 |
| 20260509081212 | 56 | 274 | 0.0 | 0.0 | 0.00 | 0.00 | 0.00 | 94 | 1013.8 |
| 20260509080710 | 56 | 279 | 0.0 | 0.0 | 0.00 | 0.00 | 0.00 | 94 | 1013.7 |
| 20260509080207 | 56 | 277 | 0.0 | 0.9 | 0.00 | 0.00 | 0.00 | 94 | 1013.6 |
| 20260509075705 | 56 | 266 | 0.0 | 0.0 | 0.00 | 0.00 | 0.00 | 94 | 1013.9 |
| 20260509075203 | 56 | 210 | 0.0 | 0.0 | 0.00 | 0.00 | 0.00 | 94 | 1013.9 |
| 20260509074659 | 56 | 281 | 0.0 | 0.0 | 0.00 | 0.00 | 0.00 | 94 | 1013.8 |
| 20260509074156 | 56 | 274 | 0.9 | 0.9 | 0.00 | 0.00 | 0.00 | 94 | 1013.6 |
| 20260509073653 | 56 | 277 | 0.0 | 0.9 | 0.00 | 0.00 | 0.00 | 93 | 1013.6 |
| 20260509073149 | 56 | 280 | 0.0 | 0.0 | 0.00 | 0.00 | 0.00 | 93 | 1013.5 |
| 20260509072646 | 56 | 282 | 0.9 | 0.9 | 0.00 | 0.00 | 0.00 | 93 | 1013.6 |
| 20260509072143 | 56 | 276 | 0.0 | 0.0 | 0.00 | 0.00 | 0.00 | 93 | 1013.6 |